DXB weather

Public forecast

Using degrees Celsius for public forecast. Weather courtesy of forecast.io.

Current aviation weather report (METAR) for Dubai International Airport

Retrieved 2020/08/10 10:00 UTC (54 minutes ago):

OMDB 101000Z 32015KT 7000 NSC 40/30 Q0994 NOSIG

Aviation forecast (TAF) for Dubai International Airport

Retrieved 2020/08/10 06:00 UTC (5 hours ago):

TAF OMDB 100458Z 1006/1112 08005KT 8000 NSC BECMG 1007/1009 34012KT BECMG 1015/1017 08007KT BECMG 1108/1110 34012KT